sensor_id;sensor_type;location;lat;lon;timestamp;temperature;humidity
69009;SHT31;56065;52.472;13.380;2024-02-21T00:00:37;9.69;86.34
69009;SHT31;56065;52.472;13.380;2024-02-21T00:03:04;9.68;86.50
69009;SHT31;56065;52.472;13.380;2024-02-21T00:05:30;9.68;86.43
69009;SHT31;56065;52.472;13.380;2024-02-21T00:07:55;9.69;86.47
69009;SHT31;56065;52.472;13.380;2024-02-21T00:10:21;9.61;86.51
69009;SHT31;56065;52.472;13.380;2024-02-21T00:12:46;9.71;86.51
69009;SHT31;56065;52.472;13.380;2024-02-21T00:15:11;9.68;86.51
69009;SHT31;56065;52.472;13.380;2024-02-21T00:17:37;9.69;86.55
69009;SHT31;56065;52.472;13.380;2024-02-21T00:20:03;9.73;86.46
69009;SHT31;56065;52.472;13.380;2024-02-21T00:22:28;9.71;86.54
69009;SHT31;56065;52.472;13.380;2024-02-21T00:24:56;9.75;86.35
69009;SHT31;56065;52.472;13.380;2024-02-21T00:27:23;9.76;86.30
69009;SHT31;56065;52.472;13.380;2024-02-21T00:29:48;9.76;86.58
69009;SHT31;56065;52.472;13.380;2024-02-21T00:32:14;9.82;86.27
69009;SHT31;56065;52.472;13.380;2024-02-21T00:34:39;9.75;86.65
69009;SHT31;56065;52.472;13.380;2024-02-21T00:37:05;9.76;86.44
69009;SHT31;56065;52.472;13.380;2024-02-21T00:39:31;9.81;86.16
69009;SHT31;56065;52.472;13.380;2024-02-21T00:41:56;9.81;86.00
69009;SHT31;56065;52.472;13.380;2024-02-21T00:44:21;9.78;86.18
69009;SHT31;56065;52.472;13.380;2024-02-21T00:46:46;9.75;85.85
69009;SHT31;56065;52.472;13.380;2024-02-21T00:49:12;9.78;85.88
69009;SHT31;56065;52.472;13.380;2024-02-21T00:51:37;9.76;85.94
69009;SHT31;56065;52.472;13.380;2024-02-21T00:54:03;9.82;85.91
69009;SHT31;56065;52.472;13.380;2024-02-21T00:56:28;9.78;85.87
69009;SHT31;56065;52.472;13.380;2024-02-21T00:58:55;9.71;85.76
69009;SHT31;56065;52.472;13.380;2024-02-21T01:01:24;9.75;85.87
69009;SHT31;56065;52.472;13.380;2024-02-21T01:03:50;9.72;85.98
69009;SHT31;56065;52.472;13.380;2024-02-21T01:06:16;9.73;86.00
69009;SHT31;56065;52.472;13.380;2024-02-21T01:08:41;9.75;85.95
69009;SHT31;56065;52.472;13.380;2024-02-21T01:11:06;9.71;85.87
69009;SHT31;56065;52.472;13.380;2024-02-21T01:13:32;9.71;85.81
69009;SHT31;56065;52.472;13.380;2024-02-21T01:15:58;9.72;86.00
69009;SHT31;56065;52.472;13.380;2024-02-21T01:18:23;9.71;85.80
69009;SHT31;56065;52.472;13.380;2024-02-21T01:20:48;9.69;85.84
69009;SHT31;56065;52.472;13.380;2024-02-21T01:23:14;9.62;85.98
69009;SHT31;56065;52.472;13.380;2024-02-21T01:25:39;9.63;86.07
69009;SHT31;56065;52.472;13.380;2024-02-21T01:28:05;9.59;86.15
69009;SHT31;56065;52.472;13.380;2024-02-21T01:30:30;9.62;86.33
69009;SHT31;56065;52.472;13.380;2024-02-21T01:32:55;9.69;86.20
69009;SHT31;56065;52.472;13.380;2024-02-21T01:35:21;9.63;86.06
69009;SHT31;56065;52.472;13.380;2024-02-21T01:37:46;9.68;86.09
69009;SHT31;56065;52.472;13.380;2024-02-21T01:40:12;9.65;85.99
69009;SHT31;56065;52.472;13.380;2024-02-21T01:42:40;9.66;85.98
69009;SHT31;56065;52.472;13.380;2024-02-21T01:45:06;9.68;86.01
69009;SHT31;56065;52.472;13.380;2024-02-21T01:47:31;9.68;86.01
69009;SHT31;56065;52.472;13.380;2024-02-21T01:49:57;9.72;85.91
69009;SHT31;56065;52.472;13.380;2024-02-21T01:52:22;9.76;85.68
69009;SHT31;56065;52.472;13.380;2024-02-21T01:54:48;9.76;85.76
69009;SHT31;56065;52.472;13.380;2024-02-21T01:57:13;9.82;85.77
69009;SHT31;56065;52.472;13.380;2024-02-21T01:59:40;9.76;85.70
69009;SHT31;56065;52.472;13.380;2024-02-21T02:02:05;9.79;85.73
69009;SHT31;56065;52.472;13.380;2024-02-21T02:04:31;9.75;85.75
69009;SHT31;56065;52.472;13.380;2024-02-21T02:06:57;9.81;85.76
69009;SHT31;56065;52.472;13.380;2024-02-21T02:09:24;9.81;85.78
69009;SHT31;56065;52.472;13.380;2024-02-21T02:11:50;9.79;85.72
69009;SHT31;56065;52.472;13.380;2024-02-21T02:14:16;9.72;86.00
69009;SHT31;56065;52.472;13.380;2024-02-21T02:16:41;9.71;86.35
69009;SHT31;56065;52.472;13.380;2024-02-21T02:19:06;9.66;86.98
69009;SHT31;56065;52.472;13.380;2024-02-21T02:21:39;9.65;87.20
69009;SHT31;56065;52.472;13.380;2024-02-21T02:24:07;9.65;87.41
69009;SHT31;56065;52.472;13.380;2024-02-21T02:26:32;9.53;87.68
69009;SHT31;56065;52.472;13.380;2024-02-21T02:28:57;9.55;88.04
69009;SHT31;56065;52.472;13.380;2024-02-21T02:31:23;9.49;88.57
69009;SHT31;56065;52.472;13.380;2024-02-21T02:33:48;9.51;88.35
69009;SHT31;56065;52.472;13.380;2024-02-21T02:36:14;9.45;88.75
69009;SHT31;56065;52.472;13.380;2024-02-21T02:38:39;9.36;89.30
69009;SHT31;56065;52.472;13.380;2024-02-21T02:41:05;9.38;89.38
69009;SHT31;56065;52.472;13.380;2024-02-21T02:43:30;9.38;89.93
69009;SHT31;56065;52.472;13.380;2024-02-21T02:45:56;9.38;89.78
69009;SHT31;56065;52.472;13.380;2024-02-21T02:48:21;9.34;89.79
69009;SHT31;56065;52.472;13.380;2024-02-21T02:50:47;9.32;90.22
69009;SHT31;56065;52.472;13.380;2024-02-21T02:53:12;9.38;90.06
69009;SHT31;56065;52.472;13.380;2024-02-21T02:55:38;9.34;90.28
69009;SHT31;56065;52.472;13.380;2024-02-21T02:58:03;9.35;90.35
69009;SHT31;56065;52.472;13.380;2024-02-21T03:00:28;9.35;90.29
69009;SHT31;56065;52.472;13.380;2024-02-21T03:02:54;9.35;90.72
69009;SHT31;56065;52.472;13.380;2024-02-21T03:05:20;9.34;91.02
69009;SHT31;56065;52.472;13.380;2024-02-21T03:07:46;9.36;90.70
69009;SHT31;56065;52.472;13.380;2024-02-21T03:10:12;9.35;90.87
69009;SHT31;56065;52.472;13.380;2024-02-21T03:12:38;9.32;90.89
69009;SHT31;56065;52.472;13.380;2024-02-21T03:15:04;9.30;91.04
69009;SHT31;56065;52.472;13.380;2024-02-21T03:17:30;9.25;91.31
69009;SHT31;56065;52.472;13.380;2024-02-21T03:19:57;9.21;91.69
69009;SHT31;56065;52.472;13.380;2024-02-21T03:22:22;9.21;91.75
69009;SHT31;56065;52.472;13.380;2024-02-21T03:24:47;9.18;91.95
69009;SHT31;56065;52.472;13.380;2024-02-21T03:27:13;9.14;92.21
69009;SHT31;56065;52.472;13.380;2024-02-21T03:29:38;9.03;92.78
69009;SHT31;56065;52.472;13.380;2024-02-21T03:32:04;9.07;92.76
69009;SHT31;56065;52.472;13.380;2024-02-21T03:34:29;9.01;92.85
69009;SHT31;56065;52.472;13.380;2024-02-21T03:36:54;8.94;94.07
69009;SHT31;56065;52.472;13.380;2024-02-21T03:39:20;9.00;93.83
69009;SHT31;56065;52.472;13.380;2024-02-21T03:41:46;8.94;94.27
69009;SHT31;56065;52.472;13.380;2024-02-21T03:44:11;8.85;94.93
69009;SHT31;56065;52.472;13.380;2024-02-21T03:46:37;8.88;94.94
69009;SHT31;56065;52.472;13.380;2024-02-21T03:49:02;8.84;95.10
69009;SHT31;56065;52.472;13.380;2024-02-21T03:51:27;8.79;95.19
69009;SHT31;56065;52.472;13.380;2024-02-21T03:53:53;8.79;94.99
69009;SHT31;56065;52.472;13.380;2024-02-21T03:56:18;8.81;94.94
69009;SHT31;56065;52.472;13.380;2024-02-21T03:58:44;8.77;95.09
69009;SHT31;56065;52.472;13.380;2024-02-21T04:01:09;8.77;95.35
69009;SHT31;56065;52.472;13.380;2024-02-21T04:03:34;8.70;95.08
69009;SHT31;56065;52.472;13.380;2024-02-21T04:06:00;8.70;95.54
69009;SHT31;56065;52.472;13.380;2024-02-21T04:08:25;8.69;95.65
69009;SHT31;56065;52.472;13.380;2024-02-21T04:10:51;8.72;95.45
69009;SHT31;56065;52.472;13.380;2024-02-21T04:13:16;8.69;95.37
69009;SHT31;56065;52.472;13.380;2024-02-21T04:15:42;8.72;95.35
69009;SHT31;56065;52.472;13.380;2024-02-21T04:18:07;8.70;95.53
69009;SHT31;56065;52.472;13.380;2024-02-21T04:20:34;8.69;95.34
69009;SHT31;56065;52.472;13.380;2024-02-21T04:22:59;8.73;95.25
69009;SHT31;56065;52.472;13.380;2024-02-21T04:25:25;8.70;95.30
69009;SHT31;56065;52.472;13.380;2024-02-21T04:27:51;8.72;95.04
69009;SHT31;56065;52.472;13.380;2024-02-21T04:30:17;8.72;94.72
69009;SHT31;56065;52.472;13.380;2024-02-21T04:32:42;8.69;95.26
69009;SHT31;56065;52.472;13.380;2024-02-21T04:35:08;8.67;95.28
69009;SHT31;56065;52.472;13.380;2024-02-21T04:37:34;8.70;95.04
69009;SHT31;56065;52.472;13.380;2024-02-21T04:39:59;8.72;94.99
69009;SHT31;56065;52.472;13.380;2024-02-21T04:42:24;8.76;94.75
69009;SHT31;56065;52.472;13.380;2024-02-21T04:44:50;8.67;94.94
69009;SHT31;56065;52.472;13.380;2024-02-21T04:47:15;8.67;94.74
69009;SHT31;56065;52.472;13.380;2024-02-21T04:49:41;8.70;94.83
69009;SHT31;56065;52.472;13.380;2024-02-21T04:52:06;8.67;94.82
69009;SHT31;56065;52.472;13.380;2024-02-21T04:54:31;8.72;94.61
69009;SHT31;56065;52.472;13.380;2024-02-21T04:56:57;8.70;95.00
69009;SHT31;56065;52.472;13.380;2024-02-21T04:59:22;8.76;94.86
69009;SHT31;56065;52.472;13.380;2024-02-21T05:01:47;8.74;94.73
69009;SHT31;56065;52.472;13.380;2024-02-21T05:04:13;8.73;94.79
69009;SHT31;56065;52.472;13.380;2024-02-21T05:06:39;8.79;94.47
69009;SHT31;56065;52.472;13.380;2024-02-21T05:09:05;8.76;94.24
69009;SHT31;56065;52.472;13.380;2024-02-21T05:11:30;8.77;94.54
69009;SHT31;56065;52.472;13.380;2024-02-21T05:13:56;8.76;94.49
69009;SHT31;56065;52.472;13.380;2024-02-21T05:16:21;8.74;94.52
69009;SHT31;56065;52.472;13.380;2024-02-21T05:18:47;8.73;94.67
69009;SHT31;56065;52.472;13.380;2024-02-21T05:21:12;8.79;94.54
69009;SHT31;56065;52.472;13.380;2024-02-21T05:23:38;8.73;94.45
69009;SHT31;56065;52.472;13.380;2024-02-21T05:26:05;8.76;94.49
69009;SHT31;56065;52.472;13.380;2024-02-21T05:28:30;8.77;94.31
69009;SHT31;56065;52.472;13.380;2024-02-21T05:30:56;8.76;94.55
69009;SHT31;56065;52.472;13.380;2024-02-21T05:33:21;8.77;94.40
69009;SHT31;56065;52.472;13.380;2024-02-21T05:35:47;8.76;94.35
69009;SHT31;56065;52.472;13.380;2024-02-21T05:38:15;8.77;94.36
69009;SHT31;56065;52.472;13.380;2024-02-21T05:40:41;8.84;94.30
69009;SHT31;56065;52.472;13.380;2024-02-21T05:43:07;8.85;94.23
69009;SHT31;56065;52.472;13.380;2024-02-21T05:45:33;8.81;94.32
69009;SHT31;56065;52.472;13.380;2024-02-21T05:47:58;8.83;94.13
69009;SHT31;56065;52.472;13.380;2024-02-21T05:50:24;8.80;94.23
69009;SHT31;56065;52.472;13.380;2024-02-21T05:52:56;8.81;94.16
69009;SHT31;56065;52.472;13.380;2024-02-21T05:55:22;8.79;94.17
69009;SHT31;56065;52.472;13.380;2024-02-21T05:57:47;8.81;94.21
69009;SHT31;56065;52.472;13.380;2024-02-21T06:00:13;8.79;94.26
69009;SHT31;56065;52.472;13.380;2024-02-21T06:02:39;8.81;94.43
69009;SHT31;56065;52.472;13.380;2024-02-21T06:05:05;8.84;94.32
69009;SHT31;56065;52.472;13.380;2024-02-21T06:07:32;8.83;94.26
69009;SHT31;56065;52.472;13.380;2024-02-21T06:09:58;8.84;94.23
69009;SHT31;56065;52.472;13.380;2024-02-21T06:12:23;8.83;94.10
69009;SHT31;56065;52.472;13.380;2024-02-21T06:14:48;8.83;94.43
69009;SHT31;56065;52.472;13.380;2024-02-21T06:17:14;8.87;94.16
69009;SHT31;56065;52.472;13.380;2024-02-21T06:19:40;8.84;94.34
69009;SHT31;56065;52.472;13.380;2024-02-21T06:22:06;8.88;94.11
69009;SHT31;56065;52.472;13.380;2024-02-21T06:24:33;8.90;93.96
69009;SHT31;56065;52.472;13.380;2024-02-21T06:26:59;8.91;93.98
69009;SHT31;56065;52.472;13.380;2024-02-21T06:29:24;8.90;94.05
69009;SHT31;56065;52.472;13.380;2024-02-21T06:31:49;8.88;93.95
69009;SHT31;56065;52.472;13.380;2024-02-21T06:34:15;8.91;94.08
69009;SHT31;56065;52.472;13.380;2024-02-21T06:36:40;8.93;94.02
69009;SHT31;56065;52.472;13.380;2024-02-21T06:39:05;9.01;93.73
69009;SHT31;56065;52.472;13.380;2024-02-21T06:41:32;8.99;93.83
69009;SHT31;56065;52.472;13.380;2024-02-21T06:43:59;9.00;93.78
69009;SHT31;56065;52.472;13.380;2024-02-21T06:46:28;9.04;93.80
69009;SHT31;56065;52.472;13.380;2024-02-21T06:48:58;9.10;93.66
69009;SHT31;56065;52.472;13.380;2024-02-21T06:51:25;9.13;93.40
69009;SHT31;56065;52.472;13.380;2024-02-21T06:53:51;9.13;93.43
69009;SHT31;56065;52.472;13.380;2024-02-21T06:56:17;9.11;93.48
69009;SHT31;56065;52.472;13.380;2024-02-21T06:58:42;9.17;93.20
69009;SHT31;56065;52.472;13.380;2024-02-21T07:01:08;9.10;93.40
69009;SHT31;56065;52.472;13.380;2024-02-21T07:03:33;9.17;93.46
69009;SHT31;56065;52.472;13.380;2024-02-21T07:05:58;9.15;93.24
69009;SHT31;56065;52.472;13.380;2024-02-21T07:08:24;9.18;93.25
69009;SHT31;56065;52.472;13.380;2024-02-21T07:10:49;9.14;93.02
69009;SHT31;56065;52.472;13.380;2024-02-21T07:13:14;9.13;93.26
69009;SHT31;56065;52.472;13.380;2024-02-21T07:15:41;9.14;93.07
69009;SHT31;56065;52.472;13.380;2024-02-21T07:18:07;9.11;93.06
69009;SHT31;56065;52.472;13.380;2024-02-21T07:20:32;9.15;92.93
69009;SHT31;56065;52.472;13.380;2024-02-21T07:23:03;9.13;92.85
69009;SHT31;56065;52.472;13.380;2024-02-21T07:25:29;9.18;92.69
69009;SHT31;56065;52.472;13.380;2024-02-21T07:27:54;9.14;92.88
69009;SHT31;56065;52.472;13.380;2024-02-21T07:30:19;9.18;92.79
69009;SHT31;56065;52.472;13.380;2024-02-21T07:32:45;9.22;92.61
69009;SHT31;56065;52.472;13.380;2024-02-21T07:35:10;9.30;92.38
69009;SHT31;56065;52.472;13.380;2024-02-21T07:37:37;9.27;92.25
69009;SHT31;56065;52.472;13.380;2024-02-21T07:40:05;9.34;92.10
69009;SHT31;56065;52.472;13.380;2024-02-21T07:42:30;9.35;92.17
69009;SHT31;56065;52.472;13.380;2024-02-21T07:44:56;9.36;91.86
69009;SHT31;56065;52.472;13.380;2024-02-21T07:47:22;9.36;91.87
69009;SHT31;56065;52.472;13.380;2024-02-21T07:49:47;9.42;91.84
69009;SHT31;56065;52.472;13.380;2024-02-21T07:52:14;9.44;91.78
69009;SHT31;56065;52.472;13.380;2024-02-21T07:54:39;9.42;91.39
69009;SHT31;56065;52.472;13.380;2024-02-21T07:57:05;9.39;91.39
69009;SHT31;56065;52.472;13.380;2024-02-21T07:59:30;9.32;91.44
69009;SHT31;56065;52.472;13.380;2024-02-21T08:01:56;9.38;91.61
69009;SHT31;56065;52.472;13.380;2024-02-21T08:04:23;9.38;91.39
69009;SHT31;56065;52.472;13.380;2024-02-21T08:06:54;9.46;91.34
69009;SHT31;56065;52.472;13.380;2024-02-21T08:09:26;9.48;91.19
69009;SHT31;56065;52.472;13.380;2024-02-21T08:11:51;9.51;91.19
69009;SHT31;56065;52.472;13.380;2024-02-21T08:14:17;9.55;90.76
69009;SHT31;56065;52.472;13.380;2024-02-21T08:16:42;9.59;90.57
69009;SHT31;56065;52.472;13.380;2024-02-21T08:19:08;9.62;90.37
69009;SHT31;56065;52.472;13.380;2024-02-21T08:21:34;9.59;90.60
69009;SHT31;56065;52.472;13.380;2024-02-21T08:23:59;9.63;90.50
69009;SHT31;56065;52.472;13.380;2024-02-21T08:26:24;9.72;90.37
69009;SHT31;56065;52.472;13.380;2024-02-21T08:28:53;9.76;90.37
69009;SHT31;56065;52.472;13.380;2024-02-21T08:31:19;9.75;90.18
69009;SHT31;56065;52.472;13.380;2024-02-21T08:33:45;9.78;90.16
69009;SHT31;56065;52.472;13.380;2024-02-21T08:36:19;9.85;89.99
69009;SHT31;56065;52.472;13.380;2024-02-21T08:38:45;9.94;89.87
69009;SHT31;56065;52.472;13.380;2024-02-21T08:41:11;10.07;89.42
69009;SHT31;56065;52.472;13.380;2024-02-21T08:43:37;10.10;89.17
69009;SHT31;56065;52.472;13.380;2024-02-21T08:46:02;10.21;89.01
69009;SHT31;56065;52.472;13.380;2024-02-21T08:48:28;10.27;89.06
69009;SHT31;56065;52.472;13.380;2024-02-21T08:50:53;10.34;88.67
69009;SHT31;56065;52.472;13.380;2024-02-21T08:53:19;10.41;88.60
69009;SHT31;56065;52.472;13.380;2024-02-21T08:55:45;10.57;88.42
69009;SHT31;56065;52.472;13.380;2024-02-21T08:58:11;10.72;87.90
69009;SHT31;56065;52.472;13.380;2024-02-21T09:00:36;10.78;87.80
69009;SHT31;56065;52.472;13.380;2024-02-21T09:03:02;10.94;87.71
69009;SHT31;56065;52.472;13.380;2024-02-21T09:05:28;10.88;87.32
69009;SHT31;56065;52.472;13.380;2024-02-21T09:07:53;10.89;87.05
69009;SHT31;56065;52.472;13.380;2024-02-21T09:10:18;10.81;87.19
69009;SHT31;56065;52.472;13.380;2024-02-21T09:12:44;10.86;87.46
69009;SHT31;56065;52.472;13.380;2024-02-21T09:15:10;10.85;87.01
69009;SHT31;56065;52.472;13.380;2024-02-21T09:17:35;10.95;87.20
69009;SHT31;56065;52.472;13.380;2024-02-21T09:20:01;11.13;86.82
69009;SHT31;56065;52.472;13.380;2024-02-21T09:22:28;11.20;86.66
69009;SHT31;56065;52.472;13.380;2024-02-21T09:24:53;11.30;86.52
69009;SHT31;56065;52.472;13.380;2024-02-21T09:27:19;11.37;85.75
69009;SHT31;56065;52.472;13.380;2024-02-21T09:29:44;11.44;85.61
69009;SHT31;56065;52.472;13.380;2024-02-21T09:32:09;11.62;85.37
69009;SHT31;56065;52.472;13.380;2024-02-21T09:34:35;11.70;84.82
69009;SHT31;56065;52.472;13.380;2024-02-21T09:37:00;11.81;84.42
69009;SHT31;56065;52.472;13.380;2024-02-21T09:39:26;11.97;84.29
69009;SHT31;56065;52.472;13.380;2024-02-21T09:41:54;12.04;84.30
69009;SHT31;56065;52.472;13.380;2024-02-21T09:44:24;11.99;83.80
69009;SHT31;56065;52.472;13.380;2024-02-21T09:46:57;12.34;84.01
69009;SHT31;56065;52.472;13.380;2024-02-21T09:49:34;13.10;82.18
69009;SHT31;56065;52.472;13.380;2024-02-21T09:52:04;13.58;80.22
69009;SHT31;56065;52.472;13.380;2024-02-21T09:54:30;13.95;79.69
69009;SHT31;56065;52.472;13.380;2024-02-21T09:57:02;14.17;79.26
69009;SHT31;56065;52.472;13.380;2024-02-21T09:59:30;13.93;79.00
69009;SHT31;56065;52.472;13.380;2024-02-21T10:01:56;13.59;79.38
69009;SHT31;56065;52.472;13.380;2024-02-21T10:04:21;13.37;80.23
69009;SHT31;56065;52.472;13.380;2024-02-21T10:06:47;13.40;80.50
69009;SHT31;56065;52.472;13.380;2024-02-21T10:09:27;13.38;80.52
69009;SHT31;56065;52.472;13.380;2024-02-21T10:11:56;13.25;80.10
69009;SHT31;56065;52.472;13.380;2024-02-21T10:14:21;13.23;80.10
69009;SHT31;56065;52.472;13.380;2024-02-21T10:16:56;13.15;80.10
69009;SHT31;56065;52.472;13.380;2024-02-21T10:19:24;12.94;80.47
69009;SHT31;56065;52.472;13.380;2024-02-21T10:22:02;12.80;80.66
69009;SHT31;56065;52.472;13.380;2024-02-21T10:24:29;12.77;80.87
69009;SHT31;56065;52.472;13.380;2024-02-21T10:27:05;12.80;80.94
69009;SHT31;56065;52.472;13.380;2024-02-21T10:29:36;12.86;81.08
69009;SHT31;56065;52.472;13.380;2024-02-21T10:32:08;12.70;81.28
69009;SHT31;56065;52.472;13.380;2024-02-21T10:34:35;12.75;81.54
69009;SHT31;56065;52.472;13.380;2024-02-21T10:37:05;12.70;81.46
69009;SHT31;56065;52.472;13.380;2024-02-21T10:39:35;12.65;81.39
69009;SHT31;56065;52.472;13.380;2024-02-21T10:42:01;12.62;81.50
69009;SHT31;56065;52.472;13.380;2024-02-21T10:44:31;12.60;81.59
69009;SHT31;56065;52.472;13.380;2024-02-21T10:46:57;12.48;81.82
69009;SHT31;56065;52.472;13.380;2024-02-21T10:49:24;12.56;82.28
69009;SHT31;56065;52.472;13.380;2024-02-21T10:51:58;12.52;81.97
69009;SHT31;56065;52.472;13.380;2024-02-21T10:54:30;12.65;82.51
69009;SHT31;56065;52.472;13.380;2024-02-21T10:56:58;12.84;82.28
69009;SHT31;56065;52.472;13.380;2024-02-21T10:59:25;12.83;81.94
69009;SHT31;56065;52.472;13.380;2024-02-21T11:01:52;12.84;81.98
69009;SHT31;56065;52.472;13.380;2024-02-21T11:04:18;12.86;82.34
69009;SHT31;56065;52.472;13.380;2024-02-21T11:06:44;12.99;82.42
69009;SHT31;56065;52.472;13.380;2024-02-21T11:09:10;13.03;82.39
69009;SHT31;56065;52.472;13.380;2024-02-21T11:11:42;13.21;82.16
69009;SHT31;56065;52.472;13.380;2024-02-21T11:14:08;13.69;81.02
69009;SHT31;56065;52.472;13.380;2024-02-21T11:16:41;14.29;79.67
69009;SHT31;56065;52.472;13.380;2024-02-21T11:19:08;14.91;78.30
69009;SHT31;56065;52.472;13.380;2024-02-21T11:21:36;15.47;77.46
69009;SHT31;56065;52.472;13.380;2024-02-21T11:24:03;15.43;76.50
69009;SHT31;56065;52.472;13.380;2024-02-21T11:26:30;15.42;76.39
69009;SHT31;56065;52.472;13.380;2024-02-21T11:29:00;15.87;76.14
69009;SHT31;56065;52.472;13.380;2024-02-21T11:31:26;16.58;74.38
69009;SHT31;56065;52.472;13.380;2024-02-21T11:33:54;17.31;72.54
69009;SHT31;56065;52.472;13.380;2024-02-21T11:36:26;17.96;71.45
69009;SHT31;56065;52.472;13.380;2024-02-21T11:38:52;19.10;70.04
69009;SHT31;56065;52.472;13.380;2024-02-21T11:41:20;19.65;67.46
69009;SHT31;56065;52.472;13.380;2024-02-21T11:43:48;19.59;66.85
69009;SHT31;56065;52.472;13.380;2024-02-21T11:46:14;19.66;66.59
69009;SHT31;56065;52.472;13.380;2024-02-21T11:48:40;19.93;66.55
69009;SHT31;56065;52.472;13.380;2024-02-21T11:51:06;20.09;65.80
69009;SHT31;56065;52.472;13.380;2024-02-21T11:53:31;20.33;65.19
69009;SHT31;56065;52.472;13.380;2024-02-21T11:55:58;20.33;64.88
69009;SHT31;56065;52.472;13.380;2024-02-21T11:58:24;20.41;65.14
69009;SHT31;56065;52.472;13.380;2024-02-21T12:00:50;20.26;64.78
69009;SHT31;56065;52.472;13.380;2024-02-21T12:03:15;21.10;64.03
69009;SHT31;56065;52.472;13.380;2024-02-21T12:05:41;21.83;63.71
69009;SHT31;56065;52.472;13.380;2024-02-21T12:08:06;22.38;61.20
69009;SHT31;56065;52.472;13.380;2024-02-21T12:10:34;22.36;61.03
69009;SHT31;56065;52.472;13.380;2024-02-21T12:13:08;22.24;60.10
69009;SHT31;56065;52.472;13.380;2024-02-21T12:15:33;22.25;60.49
69009;SHT31;56065;52.472;13.380;2024-02-21T12:17:59;21.80;60.54
69009;SHT31;56065;52.472;13.380;2024-02-21T12:20:25;21.25;61.24
69009;SHT31;56065;52.472;13.380;2024-02-21T12:22:50;20.95;62.75
69009;SHT31;56065;52.472;13.380;2024-02-21T12:25:17;19.96;63.44
69009;SHT31;56065;52.472;13.380;2024-02-21T12:27:44;19.73;64.34
69009;SHT31;56065;52.472;13.380;2024-02-21T12:30:09;20.13;64.36
69009;SHT31;56065;52.472;13.380;2024-02-21T12:32:35;20.27;63.55
69009;SHT31;56065;52.472;13.380;2024-02-21T12:35:01;20.52;64.51
69009;SHT31;56065;52.472;13.380;2024-02-21T12:37:27;20.48;64.13
69009;SHT31;56065;52.472;13.380;2024-02-21T12:39:53;20.82;62.91
69009;SHT31;56065;52.472;13.380;2024-02-21T12:42:18;20.86;62.92
69009;SHT31;56065;52.472;13.380;2024-02-21T12:44:44;19.96;63.71
69009;SHT31;56065;52.472;13.380;2024-02-21T12:47:09;20.01;65.71
69009;SHT31;56065;52.472;13.380;2024-02-21T12:49:34;19.79;64.32
69009;SHT31;56065;52.472;13.380;2024-02-21T12:52:00;19.48;64.23
69009;SHT31;56065;52.472;13.380;2024-02-21T12:54:25;18.91;65.10
69009;SHT31;56065;52.472;13.380;2024-02-21T12:56:51;18.40;66.49
69009;SHT31;56065;52.472;13.380;2024-02-21T12:59:16;18.04;67.17
69009;SHT31;56065;52.472;13.380;2024-02-21T13:01:42;17.65;67.77
69009;SHT31;56065;52.472;13.380;2024-02-21T13:04:07;17.34;68.53
69009;SHT31;56065;52.472;13.380;2024-02-21T13:06:33;17.22;69.14
69009;SHT31;56065;52.472;13.380;2024-02-21T13:08:58;16.93;69.49
69009;SHT31;56065;52.472;13.380;2024-02-21T13:11:24;16.65;69.95
69009;SHT31;56065;52.472;13.380;2024-02-21T13:13:52;16.93;70.17
69009;SHT31;56065;52.472;13.380;2024-02-21T13:16:18;17.13;69.64
69009;SHT31;56065;52.472;13.380;2024-02-21T13:18:43;17.09;69.55
69009;SHT31;56065;52.472;13.380;2024-02-21T13:21:10;16.89;70.04
69009;SHT31;56065;52.472;13.380;2024-02-21T13:23:35;16.66;70.60
69009;SHT31;56065;52.472;13.380;2024-02-21T13:26:01;16.64;70.62
69009;SHT31;56065;52.472;13.380;2024-02-21T13:28:26;16.36;70.48
69009;SHT31;56065;52.472;13.380;2024-02-21T13:30:52;16.04;71.24
69009;SHT31;56065;52.472;13.380;2024-02-21T13:33:18;15.71;71.66
69009;SHT31;56065;52.472;13.380;2024-02-21T13:35:43;15.55;72.59
69009;SHT31;56065;52.472;13.380;2024-02-21T13:38:09;15.40;72.84
69009;SHT31;56065;52.472;13.380;2024-02-21T13:40:35;15.22;73.08
69009;SHT31;56065;52.472;13.380;2024-02-21T13:43:00;15.16;73.31
69009;SHT31;56065;52.472;13.380;2024-02-21T13:45:26;15.06;73.32
69009;SHT31;56065;52.472;13.380;2024-02-21T13:47:51;15.04;73.64
69009;SHT31;56065;52.472;13.380;2024-02-21T13:50:18;14.94;73.69
69009;SHT31;56065;52.472;13.380;2024-02-21T13:52:43;14.81;74.06
69009;SHT31;56065;52.472;13.380;2024-02-21T13:55:08;14.68;74.26
69009;SHT31;56065;52.472;13.380;2024-02-21T13:57:37;14.70;74.41
69009;SHT31;56065;52.472;13.380;2024-02-21T14:00:04;14.74;74.60
69009;SHT31;56065;52.472;13.380;2024-02-21T14:02:30;14.71;74.45
69009;SHT31;56065;52.472;13.380;2024-02-21T14:04:56;14.60;74.07
69009;SHT31;56065;52.472;13.380;2024-02-21T14:07:21;14.50;74.24
69009;SHT31;56065;52.472;13.380;2024-02-21T14:09:47;14.48;74.56
69009;SHT31;56065;52.472;13.380;2024-02-21T14:12:12;14.48;74.64
69009;SHT31;56065;52.472;13.380;2024-02-21T14:14:37;14.48;74.47
69009;SHT31;56065;52.472;13.380;2024-02-21T14:17:03;14.29;74.84
69009;SHT31;56065;52.472;13.380;2024-02-21T14:19:29;14.24;74.96
69009;SHT31;56065;52.472;13.380;2024-02-21T14:21:55;14.17;75.06
69009;SHT31;56065;52.472;13.380;2024-02-21T14:24:20;14.16;75.16
69009;SHT31;56065;52.472;13.380;2024-02-21T14:26:45;14.27;75.07
69009;SHT31;56065;52.472;13.380;2024-02-21T14:29:11;14.30;75.09
69009;SHT31;56065;52.472;13.380;2024-02-21T14:31:37;14.34;75.09
69009;SHT31;56065;52.472;13.380;2024-02-21T14:34:03;14.24;74.90
69009;SHT31;56065;52.472;13.380;2024-02-21T14:36:28;14.24;75.31
69009;SHT31;56065;52.472;13.380;2024-02-21T14:38:53;14.27;75.09
69009;SHT31;56065;52.472;13.380;2024-02-21T14:41:19;14.06;75.42
69009;SHT31;56065;52.472;13.380;2024-02-21T14:43:45;14.09;75.37
69009;SHT31;56065;52.472;13.380;2024-02-21T14:46:11;14.05;75.70
69009;SHT31;56065;52.472;13.380;2024-02-21T14:48:37;14.09;75.97
69009;SHT31;56065;52.472;13.380;2024-02-21T14:51:03;14.03;75.42
69009;SHT31;56065;52.472;13.380;2024-02-21T14:53:29;13.79;75.51
69009;SHT31;56065;52.472;13.380;2024-02-21T14:55:55;13.76;75.97
69009;SHT31;56065;52.472;13.380;2024-02-21T14:58:23;13.69;76.20
69009;SHT31;56065;52.472;13.380;2024-02-21T15:00:49;13.68;76.30
69009;SHT31;56065;52.472;13.380;2024-02-21T15:03:16;13.75;76.30
69009;SHT31;56065;52.472;13.380;2024-02-21T15:05:44;13.69;76.48
69009;SHT31;56065;52.472;13.380;2024-02-21T15:08:10;13.75;76.60
69009;SHT31;56065;52.472;13.380;2024-02-21T15:10:37;13.82;76.21
69009;SHT31;56065;52.472;13.380;2024-02-21T15:13:02;13.81;76.24
69009;SHT31;56065;52.472;13.380;2024-02-21T15:15:28;13.72;76.11
69009;SHT31;56065;52.472;13.380;2024-02-21T15:17:54;13.68;76.42